createdAt,value
2022-10-01T00:03:03.634Z,99735.44
2022-10-01T00:08:05.160Z,99732.69
2022-10-01T00:13:06.634Z,99715.19
2022-10-01T00:18:09.682Z,99715.59
2022-10-01T00:23:11.981Z,99728.06
2022-10-01T00:28:13.588Z,99710.38
2022-10-01T00:33:15.133Z,99696.34
2022-10-01T00:38:16.628Z,99690.84
2022-10-01T00:43:20.373Z,99689.69
2022-10-01T00:48:22.349Z,99679.84
2022-10-01T00:53:23.815Z,99679.47
2022-10-01T00:58:25.315Z,99688.59
2022-10-01T01:03:26.813Z,99659.22
2022-10-01T01:08:29.335Z,99651.41
2022-10-01T01:13:47.597Z,99637.31
2022-10-01T01:18:54.492Z,99659.84
2022-10-01T01:24:03.889Z,99622.78
2022-10-01T01:29:11.225Z,99613.19
2022-10-01T01:34:14.073Z,99599.09
2022-10-01T01:39:15.559Z,99596.50
2022-10-01T01:44:18.274Z,99587.81
2022-10-01T01:49:20.750Z,99578.75
2022-10-01T01:54:22.265Z,99530.69
2022-10-01T01:59:24.085Z,99526.81
2022-10-01T02:04:31.488Z,99496.47
2022-10-01T02:09:40.124Z,99501.06
2022-10-01T02:14:52.611Z,99497.34
2022-10-01T02:19:57.606Z,99479.41
2022-10-01T02:24:59.954Z,99468.69
2022-10-01T02:30:04.293Z,99456.69
2022-10-01T02:35:10.465Z,99455.59
2022-10-01T02:40:15.890Z,99429.81
2022-10-01T02:45:19.526Z,99426.78
2022-10-01T02:50:23.137Z,99430.88
2022-10-01T02:55:28.683Z,99405.00
2022-10-01T03:00:30.220Z,99415.50
2022-10-01T03:05:31.693Z,99391.59
2022-10-01T03:10:33.672Z,99391.34
2022-10-01T03:15:35.210Z,99382.31
2022-10-01T03:20:36.759Z,99367.38
2022-10-01T03:25:39.027Z,99351.97
2022-10-01T03:30:40.505Z,99363.44
2022-10-01T03:35:41.978Z,99342.16
2022-10-01T03:40:43.869Z,99332.78
2022-10-01T03:45:45.454Z,99330.81
2022-10-01T03:50:57.314Z,99317.63
2022-10-01T03:55:59.338Z,99314.63
2022-10-01T04:01:00.851Z,99304.56
2022-10-01T04:06:02.342Z,99306.03
2022-10-01T04:11:04.167Z,99289.00
2022-10-01T04:16:06.857Z,99271.88
2022-10-01T04:21:08.394Z,99273.72
2022-10-01T04:26:09.899Z,99266.50
2022-10-01T04:31:26.481Z,99278.38
2022-10-01T04:36:28.051Z,99273.50
2022-10-01T04:41:30.635Z,99263.34
2022-10-01T04:46:32.547Z,99272.34
2022-10-01T04:51:34.235Z,99276.09
2022-10-01T04:56:35.960Z,99273.06
2022-10-01T05:01:37.970Z,99276.53
2022-10-01T05:06:41.266Z,99257.34
2022-10-01T05:11:42.732Z,99260.41
2022-10-01T05:16:44.247Z,99244.97
2022-10-01T05:21:46.168Z,99246.31
2022-10-01T05:26:47.647Z,99244.47
2022-10-01T05:31:49.379Z,99224.41
2022-10-01T05:36:50.913Z,99234.56
2022-10-01T05:41:55.397Z,99224.28
2022-10-01T05:46:57.928Z,99235.72
2022-10-01T05:52:01.023Z,99239.41
2022-10-01T05:57:02.595Z,99234.19
2022-10-01T06:02:04.311Z,99243.84
2022-10-01T06:07:05.940Z,99215.44
2022-10-01T06:12:08.560Z,99213.53
2022-10-01T06:17:10.025Z,99202.84
2022-10-01T06:22:11.491Z,99198.53
2022-10-01T06:27:12.961Z,99193.22
2022-10-01T06:32:19.614Z,99194.53
2022-10-01T06:37:21.092Z,99189.22
2022-10-01T06:42:22.609Z,99178.91
2022-10-01T06:47:24.119Z,99198.59
2022-10-01T06:52:43.873Z,99185.38
2022-10-01T06:57:45.673Z,99187.50
2022-10-01T07:02:47.196Z,99193.81
2022-10-01T07:07:49.070Z,99195.34
2022-10-01T07:12:50.765Z,99176.22
2022-10-01T07:17:52.370Z,99179.13
2022-10-01T07:22:57.575Z,99174.41
2022-10-01T07:28:00.777Z,99185.97
2022-10-01T07:33:02.275Z,99182.56
2022-10-01T07:38:07.344Z,99184.16
2022-10-01T07:43:08.883Z,99173.28
2022-10-01T07:48:10.365Z,99181.22
2022-10-01T07:53:11.922Z,99195.28
2022-10-01T07:58:13.431Z,99207.25
2022-10-01T08:03:14.909Z,99218.94
2022-10-01T08:08:16.385Z,99225.34
2022-10-01T08:13:17.947Z,99229.00
2022-10-01T08:18:20.191Z,99229.41
2022-10-01T08:23:21.667Z,99240.41
2022-10-01T08:28:23.194Z,99232.91
2022-10-01T08:33:24.771Z,99245.09
2022-10-01T08:38:26.234Z,99248.34
2022-10-01T08:43:33.004Z,99265.31
2022-10-01T08:48:58.610Z,99264.47
2022-10-01T08:54:24.241Z,99276.78
2022-10-01T08:59:48.726Z,99283.66
2022-10-01T09:05:04.535Z,99286.91
2022-10-01T09:10:43.420Z,99292.53
2022-10-01T09:15:57.804Z,99321.44
2022-10-01T09:20:59.277Z,99323.59
2022-10-01T09:26:00.748Z,99328.84
2022-10-01T09:31:37.407Z,99345.72
2022-10-01T09:37:06.755Z,99355.72
2022-10-01T09:42:08.280Z,99353.69
2022-10-01T09:47:20.201Z,99349.81
2022-10-01T09:52:48.716Z,99368.84
2022-10-01T09:57:56.288Z,99395.94
2022-10-01T10:02:57.919Z,99383.88
2022-10-01T10:08:00.300Z,99405.50
2022-10-01T10:13:02.160Z,99403.56
2022-10-01T10:18:06.809Z,99415.00
2022-10-01T10:23:11.731Z,99435.50
2022-10-01T10:28:23.620Z,99433.97
2022-10-01T10:33:26.287Z,99439.53
2022-10-01T10:38:30.630Z,99454.16
2022-10-01T10:43:36.413Z,99453.34
2022-10-01T10:48:43.418Z,99467.06
2022-10-01T10:53:45.609Z,99478.53
2022-10-01T10:58:47.100Z,99482.13
2022-10-01T11:03:50.154Z,99495.84
2022-10-01T11:08:59.803Z,99505.81
2022-10-01T11:14:24.002Z,99505.34
2022-10-01T11:19:44.038Z,99517.00
2022-10-01T11:25:18.359Z,99516.34
2022-10-01T11:30:24.922Z,99527.59
2022-10-01T11:35:34.332Z,99514.28
2022-10-01T11:40:39.402Z,99525.69
2022-10-01T11:45:43.574Z,99534.63
2022-10-01T11:50:46.843Z,99535.91
2022-10-01T11:56:15.320Z,99526.72
2022-10-01T12:01:38.381Z,99520.38
2022-10-01T12:06:50.587Z,99535.56
2022-10-01T12:12:02.429Z,99530.03
2022-10-01T12:17:19.501Z,99530.44
2022-10-01T12:22:25.797Z,99536.97
2022-10-01T12:27:42.071Z,99540.13
2022-10-01T12:33:04.898Z,99566.63
2022-10-01T12:38:09.173Z,99570.13
2022-10-01T12:43:25.120Z,99585.22
2022-10-01T12:48:32.736Z,99598.22
2022-10-01T12:53:48.764Z,99605.28
2022-10-01T12:58:54.948Z,99608.34
2022-10-01T13:04:19.458Z,99628.22
2022-10-01T13:09:33.645Z,99633.69
2022-10-01T13:14:35.130Z,99636.75
2022-10-01T13:19:42.521Z,99644.28
2022-10-01T13:25:02.348Z,99648.09
2022-10-01T13:30:16.206Z,99663.41
2022-10-01T13:35:39.381Z,99664.38
2022-10-01T13:40:40.891Z,99671.38
2022-10-01T13:45:43.831Z,99678.66
2022-10-01T13:50:57.122Z,99683.09
2022-10-01T13:55:58.793Z,99697.03
2022-10-01T14:01:03.352Z,99700.25
2022-10-01T14:06:14.485Z,99711.47
2022-10-01T14:11:36.821Z,99720.63
2022-10-01T14:16:44.306Z,99736.41
2022-10-01T14:22:03.047Z,99744.25
2022-10-01T14:27:22.463Z,99747.09
2022-10-01T14:33:05.143Z,99771.44
2022-10-01T14:38:19.121Z,99768.72
2022-10-01T14:43:24.902Z,99773.13
2022-10-01T14:48:28.745Z,99783.03
2022-10-01T14:53:32.762Z,99782.56
2022-10-01T14:58:36.987Z,99798.84
2022-10-01T15:03:39.237Z,99800.13
2022-10-01T15:08:44.316Z,99807.91
2022-10-01T15:13:46.577Z,99813.06
2022-10-01T15:18:48.810Z,99804.00
2022-10-01T15:23:50.275Z,99830.50
2022-10-01T15:29:03.353Z,99833.25
2022-10-01T15:34:05.271Z,99839.75
2022-10-01T15:39:40.935Z,99848.25
2022-10-01T15:44:46.392Z,99855.34
2022-10-01T15:50:20.767Z,99855.56
2022-10-01T15:55:28.279Z,99861.03
2022-10-01T16:00:32.045Z,99862.56
2022-10-01T16:05:44.530Z,99869.84
2022-10-01T16:10:46.018Z,99881.00
2022-10-01T16:16:07.903Z,99887.69
2022-10-01T16:21:10.496Z,99889.13
2022-10-01T16:26:27.185Z,99900.06
2022-10-01T16:31:29.432Z,99916.59
2022-10-01T16:36:31.028Z,99915.56
2022-10-01T16:41:33.776Z,99927.81
2022-10-01T16:46:35.550Z,99925.91
2022-10-01T16:51:37.335Z,99939.41
2022-10-01T16:56:41.246Z,99943.63
2022-10-01T17:01:43.380Z,99951.97
2022-10-01T17:06:44.932Z,99960.22
2022-10-01T17:11:46.396Z,99969.03
2022-10-01T17:16:48.341Z,99979.91
2022-10-01T17:21:49.917Z,99972.53
2022-10-01T17:26:51.448Z,99989.50
2022-10-01T17:31:53.287Z,99997.03
2022-10-01T17:36:54.950Z,99987.81
2022-10-01T17:41:56.414Z,100003.25
2022-10-01T17:46:57.907Z,100004.97
2022-10-01T17:51:59.387Z,100024.25
2022-10-01T17:57:00.885Z,100023.53
2022-10-01T18:02:13.935Z,100028.41
2022-10-01T18:07:24.438Z,100042.63
2022-10-01T18:12:25.961Z,100044.63
2022-10-01T18:17:27.475Z,100052.41
2022-10-01T18:22:28.987Z,100065.59
2022-10-01T18:27:30.616Z,100072.41
2022-10-01T18:32:36.284Z,100076.31
2022-10-01T18:37:53.182Z,100083.41
2022-10-01T18:43:17.781Z,100085.31
2022-10-01T18:48:49.952Z,100097.66
2022-10-01T18:54:23.502Z,100117.34
2022-10-01T18:59:29.812Z,100110.22
2022-10-01T19:04:47.326Z,100120.34
2022-10-01T19:09:57.450Z,100131.81
2022-10-01T19:15:19.823Z,100125.63
2022-10-01T19:20:46.087Z,100135.38
2022-10-01T19:26:04.155Z,100140.47
2022-10-01T19:31:35.422Z,100154.53
2022-10-01T19:36:39.020Z,100142.13
2022-10-01T19:41:44.333Z,100166.94
2022-10-01T19:46:47.173Z,100163.84
2022-10-01T19:51:57.312Z,100167.88
2022-10-01T19:57:25.690Z,100168.78
2022-10-01T20:02:45.732Z,100185.88
2022-10-01T20:07:52.949Z,100187.66
2022-10-01T20:13:09.304Z,100190.19
2022-10-01T20:18:27.731Z,100194.25
2022-10-01T20:23:44.533Z,100207.38
2022-10-01T20:29:09.868Z,100210.63
2022-10-01T20:34:37.138Z,100220.16
2022-10-01T20:39:50.330Z,100227.47
2022-10-01T20:44:52.193Z,100238.53
2022-10-01T20:50:00.896Z,100227.38
2022-10-01T20:55:08.258Z,100243.38
2022-10-01T21:00:26.771Z,100245.38
2022-10-01T21:05:30.094Z,100256.16
2022-10-01T21:10:46.495Z,100264.97
2022-10-01T21:16:14.158Z,100271.16
2022-10-01T21:21:18.327Z,100274.50
2022-10-01T21:26:22.640Z,100269.59
2022-10-01T21:31:33.322Z,100259.16
2022-10-01T21:36:38.780Z,100264.00
2022-10-01T21:41:53.643Z,100268.59
2022-10-01T21:47:14.562Z,100275.34
2022-10-01T21:52:34.537Z,100264.19
2022-10-01T21:58:01.590Z,100274.53
2022-10-01T22:03:20.280Z,100269.56
2022-10-01T22:08:24.706Z,100278.03
2022-10-01T22:13:29.129Z,100272.84
2022-10-01T22:18:43.378Z,100312.34
2022-10-01T22:23:50.093Z,100313.34
2022-10-01T22:28:52.974Z,100331.47
2022-10-01T22:33:57.352Z,100335.59
2022-10-01T22:39:07.900Z,100321.25
2022-10-01T22:44:16.620Z,100331.59
2022-10-01T22:49:45.234Z,100366.03
2022-10-01T22:55:10.822Z,100351.09
2022-10-01T23:00:13.280Z,100339.31
2022-10-01T23:05:26.919Z,100337.38
2022-10-01T23:10:34.270Z,100326.66
2022-10-01T23:15:41.602Z,100341.94
2022-10-01T23:21:06.387Z,100346.81
2022-10-01T23:26:32.588Z,100348.25
2022-10-01T23:32:02.786Z,100342.47
2022-10-01T23:37:30.606Z,100345.22
2022-10-01T23:42:35.827Z,100365.88
2022-10-01T23:47:43.843Z,100376.22
2022-10-01T23:52:58.077Z,100380.91
2022-10-01T23:58:03.162Z,100384.09
